sensor_id;sensor_type;location;lat;lon;timestamp;temperature;humidity
4602;DHT22;2313;48.552;9.370;2023-08-17T00:00:07;19.50;99.90
4602;DHT22;2313;48.552;9.370;2023-08-17T00:02:38;19.50;99.90
4602;DHT22;2313;48.552;9.370;2023-08-17T00:05:04;19.50;99.90
4602;DHT22;2313;48.552;9.370;2023-08-17T00:07:31;19.40;99.90
4602;DHT22;2313;48.552;9.370;2023-08-17T00:09:57;19.40;99.90
4602;DHT22;2313;48.552;9.370;2023-08-17T00:12:23;19.30;99.90
4602;DHT22;2313;48.552;9.370;2023-08-17T00:14:48;19.30;99.90
4602;DHT22;2313;48.552;9.370;2023-08-17T00:17:14;19.30;99.90
4602;DHT22;2313;48.552;9.370;2023-08-17T00:19:39;19.30;99.90
4602;DHT22;2313;48.552;9.370;2023-08-17T00:22:05;19.20;99.90
4602;DHT22;2313;48.552;9.370;2023-08-17T00:24:30;19.20;99.90
4602;DHT22;2313;48.552;9.370;2023-08-17T00:26:56;19.20;99.90
4602;DHT22;2313;48.552;9.370;2023-08-17T00:29:21;19.20;99.90
4602;DHT22;2313;48.552;9.370;2023-08-17T00:31:47;19.00;99.90
4602;DHT22;2313;48.552;9.370;2023-08-17T00:34:13;19.00;99.90
4602;DHT22;2313;48.552;9.370;2023-08-17T00:36:38;18.90;99.90
4602;DHT22;2313;48.552;9.370;2023-08-17T00:39:04;19.00;99.90
4602;DHT22;2313;48.552;9.370;2023-08-17T00:41:30;19.00;99.90
4602;DHT22;2313;48.552;9.370;2023-08-17T00:43:56;19.00;99.90
4602;DHT22;2313;48.552;9.370;2023-08-17T00:46:22;19.00;99.90
4602;DHT22;2313;48.552;9.370;2023-08-17T00:48:48;19.00;99.90
4602;DHT22;2313;48.552;9.370;2023-08-17T00:51:14;18.90;99.90
4602;DHT22;2313;48.552;9.370;2023-08-17T00:53:40;18.90;99.90
4602;DHT22;2313;48.552;9.370;2023-08-17T00:56:07;18.90;99.90
4602;DHT22;2313;48.552;9.370;2023-08-17T00:58:33;18.80;99.90
4602;DHT22;2313;48.552;9.370;2023-08-17T01:00:59;18.70;99.90
4602;DHT22;2313;48.552;9.370;2023-08-17T01:03:28;18.50;99.90
4602;DHT22;2313;48.552;9.370;2023-08-17T01:05:57;18.60;99.90
4602;DHT22;2313;48.552;9.370;2023-08-17T01:08:23;18.60;99.90
4602;DHT22;2313;48.552;9.370;2023-08-17T01:11:22;18.50;99.90
4602;DHT22;2313;48.552;9.370;2023-08-17T01:16:26;18.50;99.90
4602;DHT22;2313;48.552;9.370;2023-08-17T01:18:52;18.50;99.90
4602;DHT22;2313;48.552;9.370;2023-08-17T01:21:21;18.40;99.90
4602;DHT22;2313;48.552;9.370;2023-08-17T01:23:49;18.50;99.90
4602;DHT22;2313;48.552;9.370;2023-08-17T01:26:15;18.50;99.90
4602;DHT22;2313;48.552;9.370;2023-08-17T01:28:45;18.50;99.90
4602;DHT22;2313;48.552;9.370;2023-08-17T01:31:16;18.40;99.90
4602;DHT22;2313;48.552;9.370;2023-08-17T01:33:54;18.20;99.90
4602;DHT22;2313;48.552;9.370;2023-08-17T01:36:31;18.10;99.90
4602;DHT22;2313;48.552;9.370;2023-08-17T01:38:59;18.10;99.90
4602;DHT22;2313;48.552;9.370;2023-08-17T01:41:26;18.10;99.90
4602;DHT22;2313;48.552;9.370;2023-08-17T01:43:53;18.20;99.90
4602;DHT22;2313;48.552;9.370;2023-08-17T01:46:19;18.30;99.90
4602;DHT22;2313;48.552;9.370;2023-08-17T01:48:45;18.30;99.90
4602;DHT22;2313;48.552;9.370;2023-08-17T01:51:18;18.30;99.90
4602;DHT22;2313;48.552;9.370;2023-08-17T01:53:46;18.40;99.90
4602;DHT22;2313;48.552;9.370;2023-08-17T01:56:12;18.40;99.90
4602;DHT22;2313;48.552;9.370;2023-08-17T01:58:38;18.40;99.90
4602;DHT22;2313;48.552;9.370;2023-08-17T02:01:03;18.40;99.90
4602;DHT22;2313;48.552;9.370;2023-08-17T02:03:29;18.40;99.90
4602;DHT22;2313;48.552;9.370;2023-08-17T02:06:01;18.40;99.90
4602;DHT22;2313;48.552;9.370;2023-08-17T02:08:27;18.30;99.90
4602;DHT22;2313;48.552;9.370;2023-08-17T02:10:53;18.20;99.90
4602;DHT22;2313;48.552;9.370;2023-08-17T02:13:19;18.20;99.90
4602;DHT22;2313;48.552;9.370;2023-08-17T02:15:46;18.20;99.90
4602;DHT22;2313;48.552;9.370;2023-08-17T02:18:12;18.30;99.90
4602;DHT22;2313;48.552;9.370;2023-08-17T02:20:37;18.10;99.90
4602;DHT22;2313;48.552;9.370;2023-08-17T02:23:03;18.20;99.90
4602;DHT22;2313;48.552;9.370;2023-08-17T02:25:29;18.10;99.90
4602;DHT22;2313;48.552;9.370;2023-08-17T02:28:03;18.00;99.90
4602;DHT22;2313;48.552;9.370;2023-08-17T02:30:29;17.90;99.90
4602;DHT22;2313;48.552;9.370;2023-08-17T02:32:54;17.90;99.90
4602;DHT22;2313;48.552;9.370;2023-08-17T02:35:20;17.90;99.90
4602;DHT22;2313;48.552;9.370;2023-08-17T02:37:46;17.90;99.90
4602;DHT22;2313;48.552;9.370;2023-08-17T02:40:11;17.90;99.90
4602;DHT22;2313;48.552;9.370;2023-08-17T02:42:37;17.90;99.90
4602;DHT22;2313;48.552;9.370;2023-08-17T02:45:03;17.90;99.90
4602;DHT22;2313;48.552;9.370;2023-08-17T02:47:28;18.00;99.90
4602;DHT22;2313;48.552;9.370;2023-08-17T02:49:54;18.00;99.90
4602;DHT22;2313;48.552;9.370;2023-08-17T02:52:20;18.10;99.90
4602;DHT22;2313;48.552;9.370;2023-08-17T02:54:45;18.20;99.90
4602;DHT22;2313;48.552;9.370;2023-08-17T02:57:11;18.20;99.90
4602;DHT22;2313;48.552;9.370;2023-08-17T02:59:37;18.30;99.90
4602;DHT22;2313;48.552;9.370;2023-08-17T03:02:02;18.30;99.90
4602;DHT22;2313;48.552;9.370;2023-08-17T03:04:28;18.30;99.90
4602;DHT22;2313;48.552;9.370;2023-08-17T03:06:53;18.30;99.90
4602;DHT22;2313;48.552;9.370;2023-08-17T03:09:19;18.20;99.90
4602;DHT22;2313;48.552;9.370;2023-08-17T03:11:45;18.20;99.90
4602;DHT22;2313;48.552;9.370;2023-08-17T03:14:10;18.00;99.90
4602;DHT22;2313;48.552;9.370;2023-08-17T03:16:36;18.10;99.90
4602;DHT22;2313;48.552;9.370;2023-08-17T03:19:02;18.10;99.90
4602;DHT22;2313;48.552;9.370;2023-08-17T03:21:28;18.10;99.90
4602;DHT22;2313;48.552;9.370;2023-08-17T03:23:54;18.10;99.90
4602;DHT22;2313;48.552;9.370;2023-08-17T03:26:19;18.10;99.90
4602;DHT22;2313;48.552;9.370;2023-08-17T03:28:45;18.00;99.90
4602;DHT22;2313;48.552;9.370;2023-08-17T03:31:10;18.00;99.90
4602;DHT22;2313;48.552;9.370;2023-08-17T03:33:36;18.10;99.90
4602;DHT22;2313;48.552;9.370;2023-08-17T03:36:03;18.00;99.90
4602;DHT22;2313;48.552;9.370;2023-08-17T03:38:28;18.10;99.90
4602;DHT22;2313;48.552;9.370;2023-08-17T03:40:54;18.10;99.90
4602;DHT22;2313;48.552;9.370;2023-08-17T03:43:20;18.00;99.90
4602;DHT22;2313;48.552;9.370;2023-08-17T03:45:45;18.00;99.90
4602;DHT22;2313;48.552;9.370;2023-08-17T03:48:11;17.90;99.90
4602;DHT22;2313;48.552;9.370;2023-08-17T03:50:37;17.90;99.90
4602;DHT22;2313;48.552;9.370;2023-08-17T03:53:03;17.90;99.90
4602;DHT22;2313;48.552;9.370;2023-08-17T03:55:29;17.90;99.90
4602;DHT22;2313;48.552;9.370;2023-08-17T03:57:55;17.80;99.90
4602;DHT22;2313;48.552;9.370;2023-08-17T04:00:20;17.80;99.90
4602;DHT22;2313;48.552;9.370;2023-08-17T04:02:46;17.80;99.90
4602;DHT22;2313;48.552;9.370;2023-08-17T04:05:12;17.80;99.90
4602;DHT22;2313;48.552;9.370;2023-08-17T04:07:38;17.80;99.90
4602;DHT22;2313;48.552;9.370;2023-08-17T04:10:05;17.80;99.90
4602;DHT22;2313;48.552;9.370;2023-08-17T04:12:31;17.70;99.90
4602;DHT22;2313;48.552;9.370;2023-08-17T04:14:57;17.70;99.90
4602;DHT22;2313;48.552;9.370;2023-08-17T04:17:22;17.80;99.90
4602;DHT22;2313;48.552;9.370;2023-08-17T04:19:48;17.80;99.90
4602;DHT22;2313;48.552;9.370;2023-08-17T04:22:13;17.70;99.90
4602;DHT22;2313;48.552;9.370;2023-08-17T04:24:39;17.70;99.90
4602;DHT22;2313;48.552;9.370;2023-08-17T04:27:04;17.90;99.90
4602;DHT22;2313;48.552;9.370;2023-08-17T04:29:31;17.90;99.90
4602;DHT22;2313;48.552;9.370;2023-08-17T04:31:57;17.80;99.90
4602;DHT22;2313;48.552;9.370;2023-08-17T04:34:22;17.80;99.90
4602;DHT22;2313;48.552;9.370;2023-08-17T04:36:48;17.80;99.90
4602;DHT22;2313;48.552;9.370;2023-08-17T04:39:15;17.80;99.90
4602;DHT22;2313;48.552;9.370;2023-08-17T04:41:40;17.70;99.90
4602;DHT22;2313;48.552;9.370;2023-08-17T04:44:06;17.80;99.90
4602;DHT22;2313;48.552;9.370;2023-08-17T04:46:31;17.70;99.90
4602;DHT22;2313;48.552;9.370;2023-08-17T04:48:57;17.80;99.90
4602;DHT22;2313;48.552;9.370;2023-08-17T04:51:22;17.80;99.90
4602;DHT22;2313;48.552;9.370;2023-08-17T04:53:48;17.90;99.90
4602;DHT22;2313;48.552;9.370;2023-08-17T04:56:14;17.90;99.90
4602;DHT22;2313;48.552;9.370;2023-08-17T04:58:39;17.90;99.90
4602;DHT22;2313;48.552;9.370;2023-08-17T05:01:05;18.00;99.90
4602;DHT22;2313;48.552;9.370;2023-08-17T05:03:30;18.10;99.90
4602;DHT22;2313;48.552;9.370;2023-08-17T05:05:56;18.10;99.90
4602;DHT22;2313;48.552;9.370;2023-08-17T05:08:22;18.10;99.90
4602;DHT22;2313;48.552;9.370;2023-08-17T05:10:48;18.10;99.90
4602;DHT22;2313;48.552;9.370;2023-08-17T05:13:14;18.10;99.90
4602;DHT22;2313;48.552;9.370;2023-08-17T05:15:39;18.20;99.90
4602;DHT22;2313;48.552;9.370;2023-08-17T05:18:05;18.20;99.90
4602;DHT22;2313;48.552;9.370;2023-08-17T05:20:31;18.30;99.90
4602;DHT22;2313;48.552;9.370;2023-08-17T05:22:56;18.40;99.90
4602;DHT22;2313;48.552;9.370;2023-08-17T05:25:22;18.40;99.90
4602;DHT22;2313;48.552;9.370;2023-08-17T05:27:48;18.60;99.90
4602;DHT22;2313;48.552;9.370;2023-08-17T05:30:15;18.70;99.90
4602;DHT22;2313;48.552;9.370;2023-08-17T05:32:41;18.80;99.90
4602;DHT22;2313;48.552;9.370;2023-08-17T05:35:07;18.90;99.90
4602;DHT22;2313;48.552;9.370;2023-08-17T05:37:32;18.90;99.90
4602;DHT22;2313;48.552;9.370;2023-08-17T05:39:58;18.90;99.90
4602;DHT22;2313;48.552;9.370;2023-08-17T05:42:24;19.00;99.90
4602;DHT22;2313;48.552;9.370;2023-08-17T05:44:49;19.10;99.90
4602;DHT22;2313;48.552;9.370;2023-08-17T05:47:15;19.10;99.90
4602;DHT22;2313;48.552;9.370;2023-08-17T05:49:43;19.20;99.90
4602;DHT22;2313;48.552;9.370;2023-08-17T05:52:08;19.30;99.90
4602;DHT22;2313;48.552;9.370;2023-08-17T05:54:34;19.50;99.90
4602;DHT22;2313;48.552;9.370;2023-08-17T05:57:01;19.50;99.90
4602;DHT22;2313;48.552;9.370;2023-08-17T05:59:26;19.50;99.90
4602;DHT22;2313;48.552;9.370;2023-08-17T06:01:52;19.50;99.90
4602;DHT22;2313;48.552;9.370;2023-08-17T06:04:17;19.60;99.90
4602;DHT22;2313;48.552;9.370;2023-08-17T06:06:43;19.60;99.90
4602;DHT22;2313;48.552;9.370;2023-08-17T06:09:09;19.70;99.90
4602;DHT22;2313;48.552;9.370;2023-08-17T06:11:34;19.70;99.90
4602;DHT22;2313;48.552;9.370;2023-08-17T06:14:00;19.70;99.90
4602;DHT22;2313;48.552;9.370;2023-08-17T06:16:26;19.80;99.90
4602;DHT22;2313;48.552;9.370;2023-08-17T06:18:51;19.90;99.90
4602;DHT22;2313;48.552;9.370;2023-08-17T06:21:17;20.00;99.90
4602;DHT22;2313;48.552;9.370;2023-08-17T06:23:42;20.10;99.90
4602;DHT22;2313;48.552;9.370;2023-08-17T06:26:08;20.20;99.90
4602;DHT22;2313;48.552;9.370;2023-08-17T06:28:34;20.40;99.90
4602;DHT22;2313;48.552;9.370;2023-08-17T06:30:59;20.50;99.90
4602;DHT22;2313;48.552;9.370;2023-08-17T06:33:25;20.40;99.90
4602;DHT22;2313;48.552;9.370;2023-08-17T06:35:51;20.40;99.90
4602;DHT22;2313;48.552;9.370;2023-08-17T06:38:16;20.40;99.90
4602;DHT22;2313;48.552;9.370;2023-08-17T06:40:42;20.40;99.90
4602;DHT22;2313;48.552;9.370;2023-08-17T06:43:08;20.50;99.90
4602;DHT22;2313;48.552;9.370;2023-08-17T06:45:35;20.50;99.90
4602;DHT22;2313;48.552;9.370;2023-08-17T06:48:01;20.50;99.90
4602;DHT22;2313;48.552;9.370;2023-08-17T06:50:26;20.60;99.90
4602;DHT22;2313;48.552;9.370;2023-08-17T06:52:53;20.70;99.90
4602;DHT22;2313;48.552;9.370;2023-08-17T06:55:19;20.70;99.90
4602;DHT22;2313;48.552;9.370;2023-08-17T06:57:45;20.80;99.90
4602;DHT22;2313;48.552;9.370;2023-08-17T07:00:11;20.90;99.90
4602;DHT22;2313;48.552;9.370;2023-08-17T07:02:37;20.90;99.90
4602;DHT22;2313;48.552;9.370;2023-08-17T07:05:03;20.80;99.90
4602;DHT22;2313;48.552;9.370;2023-08-17T07:07:29;20.90;99.90
4602;DHT22;2313;48.552;9.370;2023-08-17T07:09:59;20.90;99.90
4602;DHT22;2313;48.552;9.370;2023-08-17T07:12:25;20.80;99.90
4602;DHT22;2313;48.552;9.370;2023-08-17T07:14:51;20.70;99.90
4602;DHT22;2313;48.552;9.370;2023-08-17T07:17:16;20.70;99.90
4602;DHT22;2313;48.552;9.370;2023-08-17T07:19:42;20.80;99.90
4602;DHT22;2313;48.552;9.370;2023-08-17T07:22:08;21.00;99.90
4602;DHT22;2313;48.552;9.370;2023-08-17T07:24:33;21.10;99.90
4602;DHT22;2313;48.552;9.370;2023-08-17T07:26:59;21.10;99.90
4602;DHT22;2313;48.552;9.370;2023-08-17T07:29:24;21.20;99.90
4602;DHT22;2313;48.552;9.370;2023-08-17T07:31:50;21.30;99.90
4602;DHT22;2313;48.552;9.370;2023-08-17T07:34:16;21.40;99.90
4602;DHT22;2313;48.552;9.370;2023-08-17T07:36:42;21.50;99.90
4602;DHT22;2313;48.552;9.370;2023-08-17T07:39:07;21.60;99.90
4602;DHT22;2313;48.552;9.370;2023-08-17T07:41:33;21.60;99.90
4602;DHT22;2313;48.552;9.370;2023-08-17T07:43:58;21.70;99.90
4602;DHT22;2313;48.552;9.370;2023-08-17T07:46:24;21.80;99.90
4602;DHT22;2313;48.552;9.370;2023-08-17T07:48:50;21.90;99.90
4602;DHT22;2313;48.552;9.370;2023-08-17T07:51:15;22.00;99.90
4602;DHT22;2313;48.552;9.370;2023-08-17T07:53:41;22.00;99.90
4602;DHT22;2313;48.552;9.370;2023-08-17T07:56:07;22.20;99.90
4602;DHT22;2313;48.552;9.370;2023-08-17T07:58:32;22.30;99.90
4602;DHT22;2313;48.552;9.370;2023-08-17T08:00:58;22.40;99.90
4602;DHT22;2313;48.552;9.370;2023-08-17T08:03:24;22.40;99.90
4602;DHT22;2313;48.552;9.370;2023-08-17T08:05:49;22.30;99.90
4602;DHT22;2313;48.552;9.370;2023-08-17T08:08:15;22.30;99.90
4602;DHT22;2313;48.552;9.370;2023-08-17T08:10:43;22.30;99.90
4602;DHT22;2313;48.552;9.370;2023-08-17T08:13:09;22.40;99.90
4602;DHT22;2313;48.552;9.370;2023-08-17T08:15:34;22.40;99.90
4602;DHT22;2313;48.552;9.370;2023-08-17T08:18:00;22.50;99.90
4602;DHT22;2313;48.552;9.370;2023-08-17T08:20:26;22.40;99.90
4602;DHT22;2313;48.552;9.370;2023-08-17T08:22:51;22.40;99.90
4602;DHT22;2313;48.552;9.370;2023-08-17T08:25:17;22.40;99.90
4602;DHT22;2313;48.552;9.370;2023-08-17T08:27:42;22.60;99.90
4602;DHT22;2313;48.552;9.370;2023-08-17T08:30:08;22.70;99.90
4602;DHT22;2313;48.552;9.370;2023-08-17T08:32:34;22.90;99.90
4602;DHT22;2313;48.552;9.370;2023-08-17T08:34:59;23.10;99.90
4602;DHT22;2313;48.552;9.370;2023-08-17T08:37:25;23.20;99.90
4602;DHT22;2313;48.552;9.370;2023-08-17T08:39:52;23.30;99.90
4602;DHT22;2313;48.552;9.370;2023-08-17T08:42:19;23.50;99.90
4602;DHT22;2313;48.552;9.370;2023-08-17T08:44:45;23.60;99.90
4602;DHT22;2313;48.552;9.370;2023-08-17T08:47:11;23.80;99.90
4602;DHT22;2313;48.552;9.370;2023-08-17T08:50:04;23.80;99.90
4602;DHT22;2313;48.552;9.370;2023-08-17T08:52:42;24.00;99.90
4602;DHT22;2313;48.552;9.370;2023-08-17T08:55:23;24.00;99.90
4602;DHT22;2313;48.552;9.370;2023-08-17T08:57:49;24.20;99.90
4602;DHT22;2313;48.552;9.370;2023-08-17T09:00:16;24.20;99.90
4602;DHT22;2313;48.552;9.370;2023-08-17T09:02:43;24.30;99.90
4602;DHT22;2313;48.552;9.370;2023-08-17T09:05:10;24.40;99.90
4602;DHT22;2313;48.552;9.370;2023-08-17T09:07:37;24.50;99.90
4602;DHT22;2313;48.552;9.370;2023-08-17T09:10:05;24.70;99.90
4602;DHT22;2313;48.552;9.370;2023-08-17T09:12:30;24.90;99.90
4602;DHT22;2313;48.552;9.370;2023-08-17T09:14:56;25.00;99.90
4602;DHT22;2313;48.552;9.370;2023-08-17T09:17:26;25.20;99.90
4602;DHT22;2313;48.552;9.370;2023-08-17T09:19:53;25.40;99.90
4602;DHT22;2313;48.552;9.370;2023-08-17T09:22:26;25.70;99.90
4602;DHT22;2313;48.552;9.370;2023-08-17T09:25:01;25.90;99.90
4602;DHT22;2313;48.552;9.370;2023-08-17T09:27:27;26.10;99.90
4602;DHT22;2313;48.552;9.370;2023-08-17T09:29:53;26.30;99.90
4602;DHT22;2313;48.552;9.370;2023-08-17T09:32:30;26.40;99.90
4602;DHT22;2313;48.552;9.370;2023-08-17T09:34:56;26.60;99.90
4602;DHT22;2313;48.552;9.370;2023-08-17T09:37:21;26.90;99.90
4602;DHT22;2313;48.552;9.370;2023-08-17T09:39:47;27.00;99.90
4602;DHT22;2313;48.552;9.370;2023-08-17T09:42:14;27.20;99.90
4602;DHT22;2313;48.552;9.370;2023-08-17T09:44:42;27.30;99.90
4602;DHT22;2313;48.552;9.370;2023-08-17T09:47:07;27.30;99.90
4602;DHT22;2313;48.552;9.370;2023-08-17T09:49:33;27.50;99.90
4602;DHT22;2313;48.552;9.370;2023-08-17T09:52:02;27.80;99.90
4602;DHT22;2313;48.552;9.370;2023-08-17T09:54:30;28.30;99.90
4602;DHT22;2313;48.552;9.370;2023-08-17T09:56:57;28.60;99.90
4602;DHT22;2313;48.552;9.370;2023-08-17T09:59:23;28.60;99.90
4602;DHT22;2313;48.552;9.370;2023-08-17T10:01:50;28.70;99.90
4602;DHT22;2313;48.552;9.370;2023-08-17T10:04:21;29.00;99.90
4602;DHT22;2313;48.552;9.370;2023-08-17T10:06:58;29.00;99.90
4602;DHT22;2313;48.552;9.370;2023-08-17T10:09:25;29.00;99.90
4602;DHT22;2313;48.552;9.370;2023-08-17T10:11:57;28.90;99.90
4602;DHT22;2313;48.552;9.370;2023-08-17T10:14:28;29.20;99.90
4602;DHT22;2313;48.552;9.370;2023-08-17T10:17:01;29.50;99.90
4602;DHT22;2313;48.552;9.370;2023-08-17T10:24:21;29.80;99.90
4602;DHT22;2313;48.552;9.370;2023-08-17T10:26:47;29.90;99.90
4602;DHT22;2313;48.552;9.370;2023-08-17T10:29:14;29.90;99.90
4602;DHT22;2313;48.552;9.370;2023-08-17T10:31:44;30.30;99.90
4602;DHT22;2313;48.552;9.370;2023-08-17T10:34:10;30.70;99.90
4602;DHT22;2313;48.552;9.370;2023-08-17T10:36:36;30.90;99.90
4602;DHT22;2313;48.552;9.370;2023-08-17T10:39:25;31.10;99.90
4602;DHT22;2313;48.552;9.370;2023-08-17T10:41:52;31.30;99.90
4602;DHT22;2313;48.552;9.370;2023-08-17T10:44:38;31.00;99.90
4602;DHT22;2313;48.552;9.370;2023-08-17T10:47:36;30.50;99.90
4602;DHT22;2313;48.552;9.370;2023-08-17T10:50:20;30.20;99.90
4602;DHT22;2313;48.552;9.370;2023-08-17T10:52:48;30.10;99.90
4602;DHT22;2313;48.552;9.370;2023-08-17T10:55:14;30.00;99.90
4602;DHT22;2313;48.552;9.370;2023-08-17T10:57:43;30.00;99.90
4602;DHT22;2313;48.552;9.370;2023-08-17T11:00:18;29.80;99.90
4602;DHT22;2313;48.552;9.370;2023-08-17T11:03:17;29.70;99.90
4602;DHT22;2313;48.552;9.370;2023-08-17T11:08:34;29.70;99.90
4602;DHT22;2313;48.552;9.370;2023-08-17T11:13:37;29.70;99.90
4602;DHT22;2313;48.552;9.370;2023-08-17T11:16:05;29.60;99.90
4602;DHT22;2313;48.552;9.370;2023-08-17T11:18:31;29.60;99.90
4602;DHT22;2313;48.552;9.370;2023-08-17T11:20:57;29.60;99.90
4602;DHT22;2313;48.552;9.370;2023-08-17T11:23:23;29.50;99.90
4602;DHT22;2313;48.552;9.370;2023-08-17T11:25:52;29.50;99.90
4602;DHT22;2313;48.552;9.370;2023-08-17T11:28:17;29.50;99.90
4602;DHT22;2313;48.552;9.370;2023-08-17T11:30:43;29.60;99.90
4602;DHT22;2313;48.552;9.370;2023-08-17T11:33:09;29.50;99.90
4602;DHT22;2313;48.552;9.370;2023-08-17T11:35:36;29.40;99.90
4602;DHT22;2313;48.552;9.370;2023-08-17T11:38:02;29.60;99.90
4602;DHT22;2313;48.552;9.370;2023-08-17T11:40:31;29.60;99.90
4602;DHT22;2313;48.552;9.370;2023-08-17T11:42:58;29.70;99.90
4602;DHT22;2313;48.552;9.370;2023-08-17T11:45:23;29.70;99.90
4602;DHT22;2313;48.552;9.370;2023-08-17T11:47:49;29.80;99.90
4602;DHT22;2313;48.552;9.370;2023-08-17T11:50:15;29.90;99.90
4602;DHT22;2313;48.552;9.370;2023-08-17T11:52:41;29.70;99.90
4602;DHT22;2313;48.552;9.370;2023-08-17T11:55:08;29.40;99.90
4602;DHT22;2313;48.552;9.370;2023-08-17T11:57:37;29.20;99.90
4602;DHT22;2313;48.552;9.370;2023-08-17T12:00:04;29.10;99.90
4602;DHT22;2313;48.552;9.370;2023-08-17T12:02:35;28.80;99.90
4602;DHT22;2313;48.552;9.370;2023-08-17T12:05:07;28.60;99.90
4602;DHT22;2313;48.552;9.370;2023-08-17T12:07:34;28.20;99.90
4602;DHT22;2313;48.552;9.370;2023-08-17T12:10:03;27.90;99.90
4602;DHT22;2313;48.552;9.370;2023-08-17T12:12:28;27.80;99.90
4602;DHT22;2313;48.552;9.370;2023-08-17T12:14:54;27.60;99.90
4602;DHT22;2313;48.552;9.370;2023-08-17T12:17:21;27.50;99.90
4602;DHT22;2313;48.552;9.370;2023-08-17T12:19:53;27.30;99.90
4602;DHT22;2313;48.552;9.370;2023-08-17T12:22:19;27.10;99.90
4602;DHT22;2313;48.552;9.370;2023-08-17T12:24:45;26.90;99.90
4602;DHT22;2313;48.552;9.370;2023-08-17T12:27:10;26.80;99.90
4602;DHT22;2313;48.552;9.370;2023-08-17T12:29:49;26.60;99.90
4602;DHT22;2313;48.552;9.370;2023-08-17T12:32:17;26.50;99.90
4602;DHT22;2313;48.552;9.370;2023-08-17T12:34:43;26.30;99.90
4602;DHT22;2313;48.552;9.370;2023-08-17T12:37:17;26.20;99.90
4602;DHT22;2313;48.552;9.370;2023-08-17T12:39:43;26.10;99.90
4602;DHT22;2313;48.552;9.370;2023-08-17T12:42:08;26.00;99.90
4602;DHT22;2313;48.552;9.370;2023-08-17T12:44:34;26.00;99.90
4602;DHT22;2313;48.552;9.370;2023-08-17T12:47:00;25.90;99.90
4602;DHT22;2313;48.552;9.370;2023-08-17T12:49:25;25.80;99.90
4602;DHT22;2313;48.552;9.370;2023-08-17T12:51:51;25.70;99.90
4602;DHT22;2313;48.552;9.370;2023-08-17T12:54:17;25.70;99.90
4602;DHT22;2313;48.552;9.370;2023-08-17T12:56:44;25.70;99.90
4602;DHT22;2313;48.552;9.370;2023-08-17T12:59:09;25.60;99.90
4602;DHT22;2313;48.552;9.370;2023-08-17T13:01:35;25.60;99.90
4602;DHT22;2313;48.552;9.370;2023-08-17T13:04:01;25.60;99.90
4602;DHT22;2313;48.552;9.370;2023-08-17T13:06:27;25.50;99.90
4602;DHT22;2313;48.552;9.370;2023-08-17T13:08:52;25.40;99.90
4602;DHT22;2313;48.552;9.370;2023-08-17T13:11:18;25.30;99.90
4602;DHT22;2313;48.552;9.370;2023-08-17T13:13:43;25.30;99.90
4602;DHT22;2313;48.552;9.370;2023-08-17T13:16:09;25.20;99.90
4602;DHT22;2313;48.552;9.370;2023-08-17T13:18:36;25.10;99.90
4602;DHT22;2313;48.552;9.370;2023-08-17T13:21:02;25.10;99.90
4602;DHT22;2313;48.552;9.370;2023-08-17T13:23:27;25.00;99.90
4602;DHT22;2313;48.552;9.370;2023-08-17T13:25:53;24.90;99.90
4602;DHT22;2313;48.552;9.370;2023-08-17T13:28:19;24.90;99.90
4602;DHT22;2313;48.552;9.370;2023-08-17T13:30:45;24.90;99.90
4602;DHT22;2313;48.552;9.370;2023-08-17T13:33:10;24.90;99.90
4602;DHT22;2313;48.552;9.370;2023-08-17T13:35:36;24.90;99.90
4602;DHT22;2313;48.552;9.370;2023-08-17T13:38:02;24.80;99.90
4602;DHT22;2313;48.552;9.370;2023-08-17T13:40:33;24.70;99.90
4602;DHT22;2313;48.552;9.370;2023-08-17T13:42:59;24.60;99.90
4602;DHT22;2313;48.552;9.370;2023-08-17T13:45:26;24.50;99.90
4602;DHT22;2313;48.552;9.370;2023-08-17T13:47:52;24.50;99.90
4602;DHT22;2313;48.552;9.370;2023-08-17T13:50:18;24.40;99.90
4602;DHT22;2313;48.552;9.370;2023-08-17T13:52:44;24.20;99.90
4602;DHT22;2313;48.552;9.370;2023-08-17T13:55:10;24.10;99.90
4602;DHT22;2313;48.552;9.370;2023-08-17T13:57:35;24.00;99.90
4602;DHT22;2313;48.552;9.370;2023-08-17T14:00:01;24.00;99.90
4602;DHT22;2313;48.552;9.370;2023-08-17T14:02:26;24.00;99.90
4602;DHT22;2313;48.552;9.370;2023-08-17T14:04:52;24.10;99.90
4602;DHT22;2313;48.552;9.370;2023-08-17T14:07:18;24.20;99.90
4602;DHT22;2313;48.552;9.370;2023-08-17T14:09:43;24.20;99.90
4602;DHT22;2313;48.552;9.370;2023-08-17T14:12:09;24.30;99.90
4602;DHT22;2313;48.552;9.370;2023-08-17T14:14:34;24.30;99.90
4602;DHT22;2313;48.552;9.370;2023-08-17T14:17:00;24.30;99.90
4602;DHT22;2313;48.552;9.370;2023-08-17T14:19:27;24.40;99.90
4602;DHT22;2313;48.552;9.370;2023-08-17T14:21:53;24.40;99.90
4602;DHT22;2313;48.552;9.370;2023-08-17T14:24:19;24.50;99.90
4602;DHT22;2313;48.552;9.370;2023-08-17T14:26:44;24.40;99.90
4602;DHT22;2313;48.552;9.370;2023-08-17T14:29:10;24.40;99.90
4602;DHT22;2313;48.552;9.370;2023-08-17T14:31:36;24.40;99.90
4602;DHT22;2313;48.552;9.370;2023-08-17T14:34:01;24.50;99.90
4602;DHT22;2313;48.552;9.370;2023-08-17T14:36:27;24.50;99.90
4602;DHT22;2313;48.552;9.370;2023-08-17T14:38:52;24.40;99.90
4602;DHT22;2313;48.552;9.370;2023-08-17T14:41:18;24.40;99.90
4602;DHT22;2313;48.552;9.370;2023-08-17T14:43:44;24.40;99.90
4602;DHT22;2313;48.552;9.370;2023-08-17T14:46:09;24.40;99.90
4602;DHT22;2313;48.552;9.370;2023-08-17T14:48:35;24.30;99.90
4602;DHT22;2313;48.552;9.370;2023-08-17T14:51:01;24.30;99.90
4602;DHT22;2313;48.552;9.370;2023-08-17T14:53:26;24.30;99.90
4602;DHT22;2313;48.552;9.370;2023-08-17T14:55:52;24.30;99.90
4602;DHT22;2313;48.552;9.370;2023-08-17T14:58:17;24.30;99.90
4602;DHT22;2313;48.552;9.370;2023-08-17T15:00:43;24.30;99.90
4602;DHT22;2313;48.552;9.370;2023-08-17T15:03:09;24.30;99.90
4602;DHT22;2313;48.552;9.370;2023-08-17T15:05:34;24.30;99.90
4602;DHT22;2313;48.552;9.370;2023-08-17T15:08:02;24.30;99.90
4602;DHT22;2313;48.552;9.370;2023-08-17T15:10:27;24.30;99.90
4602;DHT22;2313;48.552;9.370;2023-08-17T15:12:53;24.30;99.90
4602;DHT22;2313;48.552;9.370;2023-08-17T15:15:19;24.20;99.90
4602;DHT22;2313;48.552;9.370;2023-08-17T15:17:44;24.30;99.90
4602;DHT22;2313;48.552;9.370;2023-08-17T15:20:10;24.30;99.90
4602;DHT22;2313;48.552;9.370;2023-08-17T15:22:36;24.40;99.90
4602;DHT22;2313;48.552;9.370;2023-08-17T15:25:02;24.50;99.90
4602;DHT22;2313;48.552;9.370;2023-08-17T15:27:28;24.50;99.90
4602;DHT22;2313;48.552;9.370;2023-08-17T15:29:53;24.60;99.90
4602;DHT22;2313;48.552;9.370;2023-08-17T15:32:19;24.60;99.90
4602;DHT22;2313;48.552;9.370;2023-08-17T15:34:45;24.60;99.90
4602;DHT22;2313;48.552;9.370;2023-08-17T15:37:10;24.70;99.90
4602;DHT22;2313;48.552;9.370;2023-08-17T15:39:36;24.80;99.90
4602;DHT22;2313;48.552;9.370;2023-08-17T15:42:02;24.80;99.90
4602;DHT22;2313;48.552;9.370;2023-08-17T15:44:28;24.90;99.90
4602;DHT22;2313;48.552;9.370;2023-08-17T15:46:55;24.90;99.90
4602;DHT22;2313;48.552;9.370;2023-08-17T15:49:21;25.00;99.90
4602;DHT22;2313;48.552;9.370;2023-08-17T15:51:46;25.10;99.90
4602;DHT22;2313;48.552;9.370;2023-08-17T15:54:12;25.10;99.90
4602;DHT22;2313;48.552;9.370;2023-08-17T15:56:38;25.20;99.90
4602;DHT22;2313;48.552;9.370;2023-08-17T15:59:04;25.30;99.90
4602;DHT22;2313;48.552;9.370;2023-08-17T16:01:29;25.30;99.90
4602;DHT22;2313;48.552;9.370;2023-08-17T16:03:55;25.40;99.90
4602;DHT22;2313;48.552;9.370;2023-08-17T16:06:20;25.40;99.90
4602;DHT22;2313;48.552;9.370;2023-08-17T16:08:46;25.40;99.90
4602;DHT22;2313;48.552;9.370;2023-08-17T16:11:12;25.50;99.90